Time;durP1;ratioP1;P1;durP2;ratioP2;P2;SDS_P1;SDS_P2;PMS_P1;PMS_P2;Temp;Humidity;BMP_temperature;BMP_pressure;BME280_temperature;BME280_humidity;BME280_pressure;Samples;Min_cycle;Max_cycle;Signal;HPM_P1;HPM_P2
2023/03/21 00:01:10;;;;;;;8.05;2.60;;;;;;;5.64;46.07;95645.38;5045801;28;20035;-65
2023/03/21 00:03:36;;;;;;;9.88;2.97;;;;;;;5.65;46.02;95641.75;5025940;28;20212;-65
2023/03/21 00:06:07;;;;;;;7.18;2.45;;;;;;;6.06;44.91;95650.13;5043726;28;20040;-65
2023/03/21 00:08:32;;;;;;;6.35;2.55;;;;;;;6.17;44.88;95638.53;5039249;28;20067;-65
2023/03/21 00:10:59;;;;;;;7.53;2.97;;;;;;;6.03;45.16;95633.75;5046779;28;20587;-65
2023/03/21 00:13:25;;;;;;;4.28;2.47;;;;;;;6.11;44.92;95633.84;5037833;28;20370;-65
2023/03/21 00:15:53;;;;;;;8.80;2.67;;;;;;;6.00;45.27;95626.97;5038092;28;20038;-65
2023/03/21 00:18:21;;;;;;;9.52;3.00;;;;;;;5.74;45.08;95632.94;5036459;28;20028;-65
2023/03/21 00:20:59;;;;;;;;;;;;;;;5.62;45.79;95629.69;5038830;28;20365;-65
2023/03/21 00:23:25;;;;;;;9.90;2.95;;;;;;;5.60;45.49;95623.69;5034578;28;20232;-65
2023/03/21 00:25:51;;;;;;;6.18;2.53;;;;;;;6.22;44.91;95620.41;5037871;28;20398;-65
2023/03/21 00:28:16;;;;;;;7.80;2.80;;;;;;;6.18;44.52;95619.03;5041899;28;20040;-65
2023/03/21 00:30:42;;;;;;;6.85;2.65;;;;;;;6.58;44.03;95613.47;5040018;28;20025;-65
2023/03/21 00:33:07;;;;;;;7.13;2.75;;;;;;;6.64;43.83;95608.41;5036930;28;20032;-65
2023/03/21 00:35:33;;;;;;;8.63;2.90;;;;;;;6.63;43.32;95617.31;5037987;28;20086;-65
2023/03/21 00:37:58;;;;;;;7.78;2.88;;;;;;;6.36;43.94;95619.03;5035942;28;20461;-65
2023/03/21 00:40:23;;;;;;;8.60;2.75;;;;;;;6.24;44.74;95609.69;5039367;28;20048;-65
2023/03/21 00:42:49;;;;;;;10.32;3.30;;;;;;;6.62;43.52;95607.72;5037353;28;20033;-65
2023/03/21 00:45:15;;;;;;;7.78;2.70;;;;;;;6.53;44.23;95599.88;5037559;28;20029;-65
2023/03/21 00:47:40;;;;;;;8.10;2.85;;;;;;;6.31;44.77;95608.09;5036831;28;20081;-65
2023/03/21 00:50:06;;;;;;;9.13;2.63;;;;;;;6.30;44.49;95603.81;5039717;28;20028;-65
2023/03/21 00:52:32;;;;;;;10.35;3.30;;;;;;;6.70;43.49;95592.91;5035262;28;20041;-65
2023/03/21 00:54:57;;;;;;;9.45;2.65;;;;;;;6.69;44.02;95597.34;5039321;28;20041;-65
2023/03/21 00:57:22;;;;;;;8.23;2.40;;;;;;;6.62;44.06;95589.22;5043908;28;20048;-65
2023/03/21 00:59:48;;;;;;;10.45;2.88;;;;;;;5.98;45.05;95597.19;5041791;28;20033;-65
2023/03/21 01:02:21;;;;;;;7.10;3.20;;;;;;;6.23;44.69;95586.88;5040485;28;20258;-65
2023/03/21 01:04:46;;;;;;;8.35;2.90;;;;;;;6.68;43.98;95587.78;5045246;28;20029;-65
2023/03/21 01:07:12;;;;;;;8.48;3.00;;;;;;;6.79;43.76;95584.03;5043765;28;20040;-65
2023/03/21 01:09:37;;;;;;;8.35;3.00;;;;;;;6.89;43.60;95584.78;5046555;28;20033;-65
2023/03/21 01:12:03;;;;;;;9.98;3.38;;;;;;;6.75;43.58;95580.03;5041286;28;20395;-65
2023/03/21 01:14:28;;;;;;;6.97;2.90;;;;;;;6.53;43.62;95581.38;5041167;28;20079;-65
2023/03/21 01:16:54;;;;;;;8.23;3.05;;;;;;;6.97;43.04;95583.16;5043460;28;20071;-65
2023/03/21 01:19:20;;;;;;;6.93;2.97;;;;;;;7.08;43.05;95579.41;5045199;28;20028;-65
2023/03/21 01:21:46;;;;;;;8.77;2.83;;;;;;;6.77;43.51;95578.09;5041330;28;20032;-65
2023/03/21 01:24:11;;;;;;;5.10;2.70;;;;;;;6.83;43.36;95577.44;5041690;28;20468;-65
2023/03/21 01:26:37;;;;;;;10.43;2.97;;;;;;;6.27;44.37;95584.75;5042505;28;20043;-65
2023/03/21 01:29:03;;;;;;;9.30;3.10;;;;;;;6.61;44.06;95578.78;5042720;28;20383;-65
2023/03/21 01:31:28;;;;;;;9.55;2.78;;;;;;;6.89;43.73;95573.34;5043119;28;20088;-65
2023/03/21 01:33:54;;;;;;;7.47;2.95;;;;;;;6.63;44.16;95574.16;5046213;28;20426;-65
2023/03/21 01:36:21;;;;;;;8.63;3.17;;;;;;;6.96;43.43;95577.03;5041864;28;20037;-65
2023/03/21 01:38:47;;;;;;;7.38;3.10;;;;;;;6.76;43.52;95577.25;5038927;28;20229;-65
2023/03/21 01:41:29;;;;;;;13.43;3.13;;;;;;;6.69;43.94;95570.91;5037321;28;20037;-65
2023/03/21 01:43:55;;;;;;;4.88;2.80;;;;;;;6.54;44.16;95575.09;5043373;28;20067;-65
2023/03/21 01:46:38;;;;;;;10.80;3.15;;;;;;;6.34;44.39;95564.66;5042018;28;20045;-65
2023/03/21 01:49:08;;;;;;;5.78;2.80;;;;;;;6.45;44.54;95564.41;5042884;28;20103;-66
2023/03/21 01:51:35;;;;;;;11.82;3.40;;;;;;;6.17;44.92;95555.75;5040592;28;20127;-65
2023/03/21 01:54:00;;;;;;;6.57;2.85;;;;;;;6.19;45.04;95554.59;5023674;28;20037;-65
2023/03/21 01:56:33;;;;;;;9.00;3.05;;;;;;;6.10;45.29;95543.16;5038464;28;20528;-65
2023/03/21 01:59:06;;;;;;;7.38;3.05;;;;;;;6.12;45.51;95550.91;5038779;28;20083;-65
2023/03/21 02:01:33;;;;;;;5.88;3.05;;;;;;;6.03;45.73;95554.47;5037967;28;20154;-65
2023/03/21 02:04:02;;;;;;;7.70;3.15;;;;;;;5.93;45.83;95554.53;5040041;28;20533;-65
2023/03/21 02:06:50;;;;;;;10.45;3.42;;;;;;;5.93;45.81;95550.09;5039956;28;20458;-65
2023/03/21 02:09:18;;;;;;;9.70;3.30;;;;;;;5.74;46.32;95549.25;5039980;28;20097;-65
2023/03/21 02:11:46;;;;;;;9.13;2.90;;;;;;;5.96;45.75;95544.47;5022716;28;20343;-65
2023/03/21 02:14:17;;;;;;;8.23;3.90;;;;;;;6.09;45.60;95538.81;5037045;28;20139;-65
2023/03/21 02:16:56;;;;;;;9.25;3.45;;;;;;;6.06;45.29;95533.84;5038013;28;20079;-65
2023/03/21 02:19:28;;;;;;;9.23;3.10;;;;;;;6.20;45.19;95534.28;5038465;28;20063;-65
2023/03/21 02:22:35;;;;;;;10.60;4.22;;;;;;;5.99;45.83;95544.19;5041412;28;20512;-65
2023/03/21 02:25:08;;;;;;;10.88;3.20;;;;;;;5.97;46.03;95534.75;5009747;28;20033;-65
2023/03/21 02:27:38;;;;;;;6.90;3.10;;;;;;;5.95;46.04;95534.91;5037101;28;20370;-65
2023/03/21 02:30:15;;;;;;;6.60;2.97;;;;;;;5.88;46.06;95535.66;5037913;28;20081;-65
2023/03/21 02:32:56;;;;;;;9.73;3.22;;;;;;;5.84;46.42;95529.84;5038943;28;20097;-65
2023/03/21 02:35:40;;;;;;;7.88;2.80;;;;;;;5.80;46.35;95523.19;5039142;28;20144;-65
2023/03/21 02:38:10;;;;;;;7.70;2.78;;;;;;;5.59;46.91;95529.59;5040909;28;20559;-65
2023/03/21 02:40:44;;;;;;;9.05;3.58;;;;;;;5.58;47.35;95530.59;5037211;28;20041;-65
2023/03/21 02:43:14;;;;;;;8.30;3.40;;;;;;;5.76;46.55;95521.84;5035423;28;20504;-65
2023/03/21 02:45:46;;;;;;;8.68;3.28;;;;;;;5.65;47.17;95526.38;5038203;28;20708;-65
2023/03/21 02:48:14;;;;;;;8.90;3.70;;;;;;;5.43;47.57;95517.03;5021768;28;20103;-65
2023/03/21 02:50:42;;;;;;;9.27;3.50;;;;;;;5.91;46.43;95515.03;5021778;28;20032;-65
2023/03/21 02:53:08;;;;;;;7.93;3.40;;;;;;;5.89;46.43;95511.75;5037486;28;20107;-65
2023/03/21 02:55:34;;;;;;;9.15;3.92;;;;;;;5.42;46.78;95516.22;5021456;28;20065;-65
2023/03/21 02:58:00;;;;;;;9.82;3.88;;;;;;;5.42;46.93;95518.84;5021099;28;20044;-65
2023/03/21 03:00:28;;;;;;;10.18;3.95;;;;;;;5.80;46.82;95518.75;5021377;28;20659;-65
2023/03/21 03:02:54;;;;;;;10.15;3.83;;;;;;;6.17;45.80;95509.00;5036908;28;20033;-65
2023/03/21 03:05:24;;;;;;;12.43;3.80;;;;;;;6.33;45.53;95512.75;5039124;28;20021;-65
2023/03/21 03:07:58;;;;;;;11.90;3.55;;;;;;;6.44;45.05;95509.03;5038848;28;20064;-65
2023/03/21 03:10:33;;;;;;;7.82;3.80;;;;;;;6.58;44.93;95510.31;5039191;28;20032;-65
2023/03/21 03:13:19;;;;;;;13.75;3.90;;;;;;;6.56;45.02;95497.22;5020829;28;20064;-65
2023/03/21 03:16:08;;;;;;;7.70;3.97;;;;;;;6.61;45.89;95494.13;5035026;28;20045;-65
2023/03/21 03:18:46;;;;;;;9.02;3.58;;;;;;;6.58;44.60;95486.50;5035409;28;20029;-65
2023/03/21 03:21:27;;;;;;;8.38;3.42;;;;;;;6.76;45.01;95489.06;5019077;28;20053;-65
2023/03/21 03:24:01;;;;;;;7.07;2.90;;;;;;;6.77;44.40;95488.94;5038126;28;20327;-65
2023/03/21 03:26:36;;;;;;;7.32;3.08;;;;;;;6.93;44.86;95491.84;5036164;28;20072;-65
2023/03/21 03:29:06;;;;;;;6.82;3.50;;;;;;;6.69;45.40;95486.25;5021033;28;20049;-66
2023/03/21 03:31:34;;;;;;;6.80;3.28;;;;;;;6.90;45.25;95487.66;5019579;28;20037;-65
2023/03/21 03:34:03;;;;;;;5.07;3.00;;;;;;;7.03;45.24;95487.22;5036914;28;20128;-65
2023/03/21 03:36:34;;;;;;;5.97;3.30;;;;;;;7.09;45.02;95488.41;5020184;28;20074;-65
2023/03/21 03:39:03;;;;;;;6.07;3.28;;;;;;;7.16;44.72;95489.44;5036134;28;20098;-65
2023/03/21 03:41:28;;;;;;;;;;;;;;;7.13;44.92;95489.75;5020834;28;20036;-65
2023/03/21 03:43:57;;;;;;;10.73;3.43;;;;;;;6.76;44.51;95487.28;5035885;28;20404;-65
2023/03/21 03:46:32;;;;;;;8.68;3.33;;;;;;;6.92;45.35;95482.22;5020007;28;20314;-65
2023/03/21 03:49:08;;;;;;;8.43;3.47;;;;;;;7.04;44.84;95480.13;5019849;28;20056;-65
2023/03/21 03:51:53;;;;;;;10.13;4.15;;;;;;;7.07;44.73;95477.16;5036786;28;20457;-65
2023/03/21 03:54:21;;;;;;;9.00;4.05;;;;;;;7.12;44.63;95482.81;5035443;28;20037;-65
2023/03/21 03:56:47;;;;;;;4.40;2.90;;;;;;;7.14;44.96;95475.50;5038113;28;20037;-65
2023/03/21 03:59:18;;;;;;;7.82;3.30;;;;;;;7.19;44.50;95480.34;5021506;28;20036;-65
2023/03/21 04:01:44;;;;;;;7.05;3.50;;;;;;;7.19;44.22;95480.34;5036657;28;20387;-65
2023/03/21 04:04:10;;;;;;;6.40;3.17;;;;;;;7.18;44.47;95471.59;5036658;28;20521;-66
2023/03/21 04:06:35;;;;;;;6.13;3.28;;;;;;;7.18;44.20;95479.53;5039441;28;20035;-65
2023/03/21 04:09:03;;;;;;;8.63;3.60;;;;;;;7.17;44.20;95472.56;5037070;28;20049;-65
2023/03/21 04:11:28;;;;;;;8.45;3.53;;;;;;;7.06;44.17;95476.31;5039166;28;20064;-65
2023/03/21 04:13:54;;;;;;;11.48;3.50;;;;;;;7.06;44.28;95475.50;5039320;28;20518;-65
2023/03/21 04:16:19;;;;;;;8.10;3.63;;;;;;;7.12;43.86;95472.22;5035989;28;20258;-65
2023/03/21 04:18:45;;;;;;;12.65;3.70;;;;;;;7.15;43.74;95474.53;5040186;28;20045;-65
2023/03/21 04:21:12;;;;;;;8.15;4.05;;;;;;;7.12;43.75;95464.28;5040073;28;20151;-66
2023/03/21 04:23:38;;;;;;;8.30;3.90;;;;;;;7.12;43.52;95473.06;5038235;28;20065;-65
2023/03/21 04:26:04;;;;;;;12.38;3.70;;;;;;;7.11;43.41;95470.56;5035962;28;20119;-65
2023/03/21 04:28:30;;;;;;;10.60;4.60;;;;;;;7.01;43.64;95473.34;5037101;28;20043;-65
2023/03/21 04:30:56;;;;;;;10.75;4.20;;;;;;;6.89;43.81;95473.63;5037046;28;20142;-65
2023/03/21 04:33:24;;;;;;;8.85;3.70;;;;;;;6.95;44.01;95473.97;5039980;28;20059;-65
2023/03/21 04:35:57;;;;;;;11.05;3.70;;;;;;;6.76;44.49;95465.25;5038548;28;20342;-65
2023/03/21 04:38:23;;;;;;;11.13;3.90;;;;;;;6.93;44.26;95474.13;5039585;28;20029;-65
2023/03/21 04:40:49;;;;;;;8.23;3.90;;;;;;;6.87;44.28;95472.13;5035769;28;20587;-65
2023/03/21 04:43:15;;;;;;;8.80;3.60;;;;;;;6.56;44.67;95464.69;5037480;28;20041;-65
2023/03/21 04:45:40;;;;;;;7.55;3.55;;;;;;;6.65;44.87;95463.72;5037988;28;20037;-65
2023/03/21 04:48:06;;;;;;;7.78;4.30;;;;;;;6.67;44.79;95464.41;5037487;28;20049;-65
2023/03/21 04:50:31;;;;;;;9.50;4.13;;;;;;;6.77;44.57;95472.25;5037225;28;20600;-65
2023/03/21 04:52:57;;;;;;;7.55;3.95;;;;;;;6.84;44.30;95464.50;5037619;28;20037;-65
2023/03/21 04:55:23;;;;;;;9.13;4.07;;;;;;;6.84;44.19;95456.56;5038339;28;20630;-65
2023/03/21 04:57:49;;;;;;;8.77;4.05;;;;;;;6.74;44.80;95461.97;5038661;28;20087;-65
2023/03/21 05:00:15;;;;;;;6.25;3.63;;;;;;;6.66;44.80;95464.56;5037190;28;20059;-65
2023/03/21 05:02:40;;;;;;;7.93;3.72;;;;;;;6.54;45.47;95456.91;5037981;28;20063;-65
2023/03/21 05:05:09;;;;;;;10.25;4.53;;;;;;;6.52;45.16;95455.41;5037473;28;20708;-65
2023/03/21 05:07:35;;;;;;;9.05;4.10;;;;;;;6.29;45.48;95450.59;5038223;28;20271;-65
2023/03/21 05:10:01;;;;;;;12.82;4.53;;;;;;;5.90;45.93;95463.19;5038407;28;20367;-65
2023/03/21 05:12:26;;;;;;;9.43;4.55;;;;;;;6.08;45.63;95460.53;5036614;28;20044;-65
2023/03/21 05:14:51;;;;;;;13.70;4.22;;;;;;;6.19;45.21;95462.06;5037217;28;20440;-65
2023/03/21 05:17:22;;;;;;;10.07;4.07;;;;;;;6.04;45.31;95466.25;5038637;28;20040;-65
2023/03/21 05:19:49;;;;;;;8.45;3.90;;;;;;;5.93;45.68;95470.81;5037302;28;20037;-65
2023/03/21 05:22:18;;;;;;;8.40;3.80;;;;;;;5.94;45.53;95461.91;5037506;28;20028;-65
2023/03/21 05:24:48;;;;;;;8.52;4.00;;;;;;;5.96;45.56;95465.19;5037281;28;20657;-65
2023/03/21 05:27:34;;;;;;;12.30;4.28;;;;;;;5.98;45.34;95465.88;5036801;28;20553;-65
2023/03/21 05:30:11;;;;;;;7.35;4.45;;;;;;;5.82;45.95;95457.84;5037079;28;20029;-65
2023/03/21 05:32:36;;;;;;;9.00;4.43;;;;;;;5.89;45.85;95458.06;5036534;28;20033;-65
2023/03/21 05:35:01;;;;;;;6.57;3.83;;;;;;;5.80;46.11;95452.69;5037305;28;20425;-65
2023/03/21 05:37:27;;;;;;;8.27;3.97;;;;;;;5.81;46.18;95450.88;5037308;28;20025;-65
2023/03/21 05:39:52;;;;;;;9.07;4.38;;;;;;;5.87;46.13;95450.28;5035881;28;20401;-65
2023/03/21 05:42:18;;;;;;;9.68;4.30;;;;;;;5.84;45.77;95461.13;5036113;28;20037;-65
2023/03/21 05:44:44;;;;;;;6.93;3.85;;;;;;;5.90;46.01;95455.25;5037415;28;20407;-65
2023/03/21 05:47:11;;;;;;;6.10;3.78;;;;;;;5.97;45.92;95453.66;5035906;28;20740;-65
2023/03/21 05:49:37;;;;;;;6.50;3.58;;;;;;;6.08;45.95;95451.75;5037698;28;20036;-65
2023/03/21 05:52:02;;;;;;;8.07;3.50;;;;;;;6.24;45.63;95461.63;5037731;28;20095;-65
2023/03/21 05:54:28;;;;;;;8.07;3.83;;;;;;;6.34;45.32;95462.38;5038765;28;20474;-65
2023/03/21 05:56:53;;;;;;;7.15;3.40;;;;;;;6.49;45.63;95454.72;5039390;28;20386;-65
2023/03/21 05:59:18;;;;;;;8.32;3.50;;;;;;;6.66;45.27;95461.94;5040188;28;20033;-65
2023/03/21 06:01:44;;;;;;;9.10;4.35;;;;;;;6.87;44.50;95472.13;5039329;28;20049;-65
2023/03/21 06:04:10;;;;;;;9.63;4.25;;;;;;;6.93;44.22;95465.38;5039474;28;20506;-65
2023/03/21 06:06:35;;;;;;;10.43;4.45;;;;;;;6.97;44.45;95472.00;5039582;28;20040;-65
2023/03/21 06:09:00;;;;;;;8.75;4.00;;;;;;;6.62;45.11;95464.88;5037165;28;20045;-65
2023/03/21 06:11:28;;;;;;;10.30;4.05;;;;;;;6.57;45.66;95456.59;5039086;28;20037;-65
2023/03/21 06:13:54;;;;;;;8.85;4.38;;;;;;;6.85;44.85;95466.97;5037906;28;20227;-65
2023/03/21 06:16:19;;;;;;;15.50;4.97;;;;;;;6.67;44.47;95460.94;5038656;28;20769;-65
2023/03/21 06:18:45;;;;;;;8.10;4.10;;;;;;;6.77;45.07;95459.81;5036998;28;20043;-65
2023/03/21 06:21:10;;;;;;;14.07;4.78;;;;;;;6.88;44.91;95461.34;5039918;28;20387;-65
2023/03/21 06:23:36;;;;;;;12.15;4.63;;;;;;;6.68;45.50;95463.41;5038870;28;20029;-65
2023/03/21 06:26:01;;;;;;;9.77;4.15;;;;;;;6.82;45.64;95467.28;5040512;28;20039;-65
2023/03/21 06:28:27;;;;;;;8.55;3.70;;;;;;;7.27;45.18;95462.66;5038688;28;20473;-65
2023/03/21 06:30:52;;;;;;;10.40;4.10;;;;;;;7.72;44.14;95462.41;5039153;28;20037;-65
2023/03/21 06:33:18;;;;;;;9.32;4.32;;;;;;;7.63;43.74;95468.72;5039471;28;20229;-66
2023/03/21 06:35:43;;;;;;;12.35;4.82;;;;;;;6.64;45.13;95472.66;5040011;28;20182;-65
2023/03/21 06:38:09;;;;;;;12.13;4.50;;;;;;;7.08;45.05;95473.53;5041349;28;20249;-65
2023/03/21 06:40:37;;;;;;;14.32;5.03;;;;;;;4.25;51.27;95482.16;5038060;28;20045;-65
2023/03/21 06:43:02;;;;;;;10.85;4.75;;;;;;;5.77;48.45;95475.94;5036989;28;20033;-65
2023/03/21 06:45:27;;;;;;;11.27;4.93;;;;;;;6.27;47.82;95481.63;5041229;28;20512;-65
2023/03/21 06:47:53;;;;;;;11.98;4.85;;;;;;;6.81;45.90;95470.09;5039806;28;20549;-65
2023/03/21 06:50:18;;;;;;;12.70;4.88;;;;;;;6.93;45.76;95468.81;5039765;28;20490;-65
2023/03/21 06:52:44;;;;;;;9.13;4.25;;;;;;;7.49;44.52;95470.19;5040120;28;20056;-65
2023/03/21 06:55:09;;;;;;;12.38;4.70;;;;;;;6.97;45.43;95472.81;5039795;28;20115;-65
2023/03/21 06:57:35;;;;;;;9.75;4.80;;;;;;;7.40;44.31;95470.16;5039671;28;20671;-65
2023/03/21 07:00:00;;;;;;;11.13;4.70;;;;;;;7.30;44.47;95468.63;5039278;28;20136;-65
2023/03/21 07:02:26;;;;;;;12.43;5.43;;;;;;;7.08;45.50;95469.06;5038593;28;20052;-65
2023/03/21 07:04:51;;;;;;;11.90;4.60;;;;;;;7.60;44.83;95469.88;5039518;28;20056;-65
2023/03/21 07:07:17;;;;;;;11.02;4.75;;;;;;;7.61;44.22;95474.16;5036964;28;20145;-65
2023/03/21 07:09:42;;;;;;;10.40;4.45;;;;;;;7.86;44.20;95468.13;5039249;28;20033;-65
2023/03/21 07:12:08;;;;;;;11.27;4.78;;;;;;;7.60;44.09;95466.38;5034951;28;20040;-65
2023/03/21 07:14:34;;;;;;;10.07;3.90;;;;;;;8.13;44.04;95466.13;5035876;28;20458;-65
2023/03/21 07:16:59;;;;;;;11.27;4.80;;;;;;;8.42;43.22;95473.56;5034362;28;20848;-65
2023/03/21 07:19:25;;;;;;;15.07;5.05;;;;;;;8.39;42.60;95470.41;5035450;28;20036;-65
2023/03/21 07:21:51;;;;;;;9.63;5.35;;;;;;;8.11;43.45;95465.47;5036050;28;20033;-66
2023/03/21 07:24:16;;;;;;;11.95;5.35;;;;;;;8.53;43.10;95469.72;5035150;28;20086;-65
2023/03/21 07:26:42;;;;;;;11.25;4.78;;;;;;;8.89;41.99;95470.31;5035636;28;20044;-65
2023/03/21 07:29:07;;;;;;;11.98;4.68;;;;;;;8.65;42.47;95472.88;5034635;28;20040;-65
2023/03/21 07:31:34;;;;;;;11.75;4.97;;;;;;;8.03;43.43;95467.13;5030700;28;20378;-65
2023/03/21 07:34:00;;;;;;;12.68;5.03;;;;;;;8.75;42.28;95470.03;5032276;28;20119;-65
2023/03/21 07:36:25;;;;;;;11.15;5.40;;;;;;;6.99;45.43;95475.31;5037763;28;20078;-65
2023/03/21 07:38:50;;;;;;;12.27;4.90;;;;;;;7.13;45.86;95484.44;5029319;28;20033;-65
2023/03/21 07:41:16;;;;;;;10.98;4.82;;;;;;;8.29;42.59;95476.72;5032871;28;20457;-65
2023/03/21 07:43:41;;;;;;;14.18;5.03;;;;;;;6.39;47.96;95483.03;5033286;28;20343;-65
2023/03/21 07:46:07;;;;;;;12.98;5.97;;;;;;;7.12;46.65;95474.88;5035211;28;20102;-65
2023/03/21 07:48:32;;;;;;;11.13;5.00;;;;;;;7.63;45.12;95472.19;5037315;28;20061;-65
2023/03/21 07:50:58;;;;;;;9.95;4.57;;;;;;;5.60;51.10;95486.34;5037268;28;20591;-65
2023/03/21 07:53:23;;;;;;;13.57;7.95;;;;;;;6.28;48.77;95478.84;5035547;28;20033;-65
2023/03/21 07:55:55;;;;;;;11.45;4.60;;;;;;;7.21;46.54;95479.19;5037333;28;20471;-65
2023/03/21 07:58:21;;;;;;;11.50;4.93;;;;;;;7.49;45.65;95483.41;5033693;28;20036;-65
2023/03/21 08:00:46;;;;;;;13.65;6.25;;;;;;;5.60;50.52;95494.28;5030748;28;20544;-65
2023/03/21 08:03:12;;;;;;;14.85;4.95;;;;;;;5.79;50.58;95495.13;5035291;28;20084;-65
2023/03/21 08:05:37;;;;;;;9.88;4.40;;;;;;;7.45;46.50;95490.84;5037565;28;20033;-65
2023/03/21 08:08:03;;;;;;;13.45;5.97;;;;;;;8.01;45.70;95492.13;5034420;28;20222;-65
2023/03/21 08:10:29;;;;;;;13.20;5.00;;;;;;;8.30;44.69;95489.00;5034717;28;20460;-65
2023/03/21 08:12:54;;;;;;;11.60;4.80;;;;;;;8.11;44.60;95491.97;5036225;28;20040;-65
2023/03/21 08:15:20;;;;;;;12.35;5.30;;;;;;;8.02;44.83;95491.13;5034261;28;20071;-65
2023/03/21 08:17:46;;;;;;;15.07;8.95;;;;;;;8.72;43.75;95490.75;5037454;28;20438;-65
2023/03/21 08:20:13;;;;;;;19.08;9.57;;;;;;;8.72;43.50;95486.28;5036342;28;20041;-65
2023/03/21 08:22:39;;;;;;;16.90;5.73;;;;;;;7.99;45.00;95492.31;5035247;28;20493;-65
2023/03/21 08:25:06;;;;;;;13.13;4.63;;;;;;;7.27;47.10;95493.59;5035817;28;20044;-66
2023/03/21 08:27:32;;;;;;;12.30;5.28;;;;;;;8.60;44.57;95492.94;5033474;28;20122;-65
2023/03/21 08:29:58;;;;;;;12.15;4.38;;;;;;;8.35;44.85;95496.47;5036342;28;20515;-65
2023/03/21 08:32:30;;;;;;;12.00;4.45;;;;;;;8.27;44.75;95494.63;5035801;28;20037;-65
2023/03/21 08:34:57;;;;;;;9.68;4.00;;;;;;;8.17;45.05;95491.31;5035910;28;20452;-65
2023/03/21 08:37:23;;;;;;;9.98;3.65;;;;;;;7.44;47.23;95499.78;5034935;28;20108;-65
2023/03/21 08:39:48;;;;;;;12.48;4.93;;;;;;;7.49;47.93;95496.66;5030518;28;20450;-65
2023/03/21 08:42:14;;;;;;;11.32;4.20;;;;;;;7.47;48.13;95502.13;5034186;28;20025;-65
2023/03/21 08:44:40;;;;;;;8.85;3.75;;;;;;;7.40;49.17;95501.09;5028963;28;20091;-65
2023/03/21 08:47:05;;;;;;;18.58;9.38;;;;;;;7.44;49.15;95501.63;5035168;28;20048;-65
2023/03/21 08:49:31;;;;;;;10.65;3.88;;;;;;;7.62;48.91;95501.50;5033703;28;20120;-65
2023/03/21 08:51:56;;;;;;;11.40;3.90;;;;;;;7.85;48.11;95503.56;5033662;28;20056;-65
2023/03/21 08:54:22;;;;;;;12.95;4.30;;;;;;;7.75;47.74;95499.19;5036826;28;20072;-65
2023/03/21 08:56:47;;;;;;;12.07;5.60;;;;;;;7.72;48.28;95502.16;5035255;28;20049;-65
2023/03/21 08:59:13;;;;;;;16.38;4.95;;;;;;;5.94;51.54;95509.47;5034130;28;20566;-65
2023/03/21 09:01:38;;;;;;;22.85;17.17;;;;;;;5.90;52.83;95509.91;5036147;28;20036;-65
2023/03/21 09:04:06;;;;;;;10.38;4.70;;;;;;;7.17;50.43;95499.03;5037538;28;20729;-65
2023/03/21 09:06:32;;;;;;;17.13;6.77;;;;;;;7.04;50.38;95503.94;5034364;28;20036;-66
2023/03/21 09:08:58;;;;;;;14.98;5.03;;;;;;;7.42;50.31;95499.13;5031692;28;20041;-66
2023/03/21 09:11:24;;;;;;;10.60;5.10;;;;;;;6.84;50.68;95505.00;5037497;28;20167;-66
2023/03/21 09:13:49;;;;;;;11.80;4.32;;;;;;;7.17;50.59;95500.88;5038228;28;20338;-66
2023/03/21 09:16:15;;;;;;;14.90;5.57;;;;;;;7.56;49.27;95495.03;5036122;28;20515;-66
2023/03/21 09:18:47;;;;;;;14.32;5.25;;;;;;;7.00;49.65;95496.31;5037180;28;20477;-66
2023/03/21 09:21:17;;;;;;;12.63;5.18;;;;;;;7.77;49.03;95499.91;5038513;28;20045;-66
2023/03/21 09:23:43;;;;;;;15.30;8.57;;;;;;;7.85;49.09;95504.38;5036935;28;20186;-66
2023/03/21 09:26:09;;;;;;;16.20;7.45;;;;;;;5.10;57.06;95517.47;5038972;28;20510;-66
2023/03/21 09:28:36;;;;;;;14.02;5.60;;;;;;;6.33;53.61;95503.00;5038269;28;20136;-66
2023/03/21 09:31:02;;;;;;;11.95;5.82;;;;;;;6.63;53.08;95505.38;5040179;28;20114;-65
2023/03/21 09:33:28;;;;;;;13.90;6.97;;;;;;;4.63;58.45;95513.03;5039621;28;20040;-66
2023/03/21 09:35:54;;;;;;;14.65;6.50;;;;;;;6.85;53.27;95505.84;5039973;28;20179;-66
2023/03/21 09:38:21;;;;;;;11.88;5.00;;;;;;;7.15;51.12;95514.25;5038063;28;20624;-65
2023/03/21 09:41:06;;;;;;;13.20;4.68;;;;;;;6.86;51.87;95508.34;5040570;28;20055;-65
2023/03/21 09:43:34;;;;;;;10.10;4.32;;;;;;;6.71;52.78;95509.91;5038111;28;20581;-68
2023/03/21 09:46:11;;;;;;;11.65;5.13;;;;;;;5.01;55.58;95520.97;5039760;28;20036;-65
2023/03/21 09:48:55;;;;;;;10.65;5.18;;;;;;;5.53;58.04;95515.19;5037341;28;20364;-65
2023/03/21 09:51:22;;;;;;;12.57;6.15;;;;;;;7.15;52.98;95504.47;5039514;28;20043;-65
2023/03/21 09:53:48;;;;;;;12.45;4.45;;;;;;;5.98;54.29;95510.81;5023501;28;20422;-66
2023/03/21 09:56:14;;;;;;;9.93;4.68;;;;;;;6.03;55.42;95509.53;5020561;28;20041;-65
2023/03/21 09:58:53;;;;;;;14.85;8.77;;;;;;;6.76;53.30;95508.44;5036258;28;20043;-65
2023/03/21 10:01:40;;;;;;;20.13;12.23;;;;;;;7.31;51.69;95499.44;5032898;28;20201;-66
2023/03/21 10:04:06;;;;;;;10.60;4.60;;;;;;;7.36;50.17;95513.84;5037337;28;20056;-66
2023/03/21 10:06:38;;;;;;;10.00;4.72;;;;;;;6.29;53.21;95506.13;5038809;28;20111;-65
2023/03/21 10:09:14;;;;;;;13.25;6.65;;;;;;;7.27;50.41;95505.03;5004942;28;20086;-65
2023/03/21 10:11:59;;;;;;;9.10;4.47;;;;;;;5.89;52.78;95516.19;5036265;28;20044;-65
2023/03/21 10:14:36;;;;;;;13.55;4.05;;;;;;;7.04;51.94;95499.47;5039841;28;20029;-65
2023/03/21 10:17:21;;;;;;;10.40;4.40;;;;;;;6.87;52.24;95501.22;5038106;28;20033;-65
2023/03/21 10:19:49;;;;;;;10.52;4.35;;;;;;;6.89;52.28;95499.25;5037760;28;20555;-65
2023/03/21 10:22:14;;;;;;;11.98;6.93;;;;;;;6.38;54.76;95499.91;5019664;28;20042;-65
2023/03/21 10:24:39;;;;;;;6.80;3.30;;;;;;;6.88;52.72;95500.25;5038284;28;20059;-65
2023/03/21 10:27:05;;;;;;;8.20;3.53;;;;;;;6.88;51.90;95495.75;5036689;28;20044;-65
2023/03/21 10:29:40;;;;;;;11.05;4.05;;;;;;;6.51;52.54;95494.22;5036796;28;20626;-65
2023/03/21 10:32:08;;;;;;;9.68;4.15;;;;;;;6.36;53.21;95499.22;5037408;28;20502;-65
2023/03/21 10:34:47;;;;;;;12.90;8.02;;;;;;;7.10;53.09;95490.06;5035851;28;20075;-65
2023/03/21 10:37:13;;;;;;;8.23;3.80;;;;;;;7.39;51.11;95492.31;5035953;28;20528;-66
2023/03/21 10:39:42;;;;;;;8.63;3.67;;;;;;;6.54;52.92;95493.09;5035139;28;20057;-65
2023/03/21 10:42:20;;;;;;;8.43;3.70;;;;;;;6.08;56.06;95494.03;5034529;28;20429;-65
2023/03/21 10:44:47;;;;;;;34.30;24.88;;;;;;;6.62;54.01;95480.75;5051195;28;20067;-65
2023/03/21 10:47:18;;;;;;;8.82;4.00;;;;;;;6.28;55.09;95483.28;5032808;28;20146;-65
2023/03/21 10:49:43;;;;;;;9.50;3.55;;;;;;;6.61;53.91;95481.75;5037814;28;20460;-65
2023/03/21 10:52:10;;;;;;;6.80;3.10;;;;;;;6.30;53.62;95486.63;5018468;28;21022;-65
2023/03/21 10:54:35;;;;;;;8.43;3.42;;;;;;;6.05;54.84;95486.44;5021231;28;20516;-65
2023/03/21 10:57:04;;;;;;;8.25;3.40;;;;;;;7.43;52.42;95476.09;5034083;28;20048;-65
2023/03/21 10:59:44;;;;;;;14.57;8.23;;;;;;;7.80;51.43;95477.56;5035677;28;20528;-73
2023/03/21 11:02:23;;;;;;;6.95;3.58;;;;;;;7.32;51.21;95475.44;5021954;28;20587;-73
2023/03/21 11:04:49;;;;;;;8.13;3.20;;;;;;;8.32;50.99;95475.56;5023096;28;20473;-73
2023/03/21 11:07:14;;;;;;;7.50;3.65;;;;;;;7.06;52.08;95481.63;5037627;28;20401;-73
2023/03/21 11:09:54;;;;;;;8.95;5.28;;;;;;;6.98;53.45;95474.50;5020032;28;20025;-65
2023/03/21 11:12:36;;;;;;;6.85;2.92;;;;;;;7.85;50.23;95469.13;5034869;28;20033;-72
2023/03/21 11:15:38;;;;;;;15.45;10.48;;;;;;;6.54;52.81;95466.63;5020737;28;20036;-73
2023/03/21 11:18:33;;;;;;;6.13;3.00;;;;;;;6.30;54.11;95482.16;5037334;28;20031;-73
2023/03/21 11:21:06;;;;;;;8.27;3.40;;;;;;;5.58;56.96;95478.56;5022671;28;20077;-73
2023/03/21 11:23:33;;;;;;;8.15;3.17;;;;;;;6.65;53.91;95463.72;5036013;28;20167;-73
2023/03/21 11:25:59;;;;;;;5.75;2.90;;;;;;;7.93;51.30;95463.81;5019753;28;20040;-73
2023/03/21 11:28:32;;;;;;;8.63;3.85;;;;;;;6.28;53.46;95467.41;5019155;28;20045;-73
2023/03/21 11:31:01;;;;;;;7.45;3.17;;;;;;;7.15;52.45;95464.78;5020008;28;20901;-73
2023/03/21 11:33:32;;;;;;;14.85;8.82;;;;;;;7.95;50.72;95458.34;5035424;28;20056;-73
2023/03/21 11:36:19;;;;;;;6.55;3.00;;;;;;;8.20;50.18;95463.66;5019527;28;20287;-73
2023/03/21 11:39:12;;;;;;;8.20;3.30;;;;;;;7.05;52.68;95457.94;5036295;28;20261;-74
2023/03/21 11:41:39;;;;;;;16.33;9.30;;;;;;;7.06;53.96;95455.16;5035970;28;20072;-73
2023/03/21 11:44:04;;;;;;;5.78;3.05;;;;;;;6.61;53.40;95447.34;5035185;28;20041;-73
2023/03/21 11:46:30;;;;;;;7.57;3.95;;;;;;;6.38;54.83;95452.28;5019503;28;20078;-73